Wednesday, November 21, 2018, 5:48 AM EST
Back to Local

KDUJ, Du Bois-jefferson County

Location: Reynoldsville, PA, United States Lat: 41.183
Local Time: 5:48 AM EST (10:48 GMT) Lon: -78.883
Time Zone: US/Eastern Elev: 1820 ft

Show me the last for .
Show Decoded

2018-11-21 04:53 METAR KDUJ 210953Z AUTO 24017G23KT 7SM OVC016 M02/M04 A2999 RMK AO2 SLP174
                 T10171044 =
2018-11-21 03:53 METAR KDUJ 210853Z AUTO 23014KT 9SM BKN018 OVC027 M02/M05 A2999 RMK AO2 SLP175
                 T10171050 58010 =
2018-11-21 02:53 METAR KDUJ 210753Z AUTO 25015KT 10SM OVC026 M02/M06 A3001 RMK AO2 SLP180
                 T10221056 =
2018-11-21 02:22 METAR KDUJ 210722Z AUTO 23015KT 10SM FEW021 OVC028 M02/M06 A3001 RMK AO2
                 T10221061 =
2018-11-21 01:53 METAR KDUJ 210653Z AUTO 24013KT 10SM FEW024 OVC030 M02/M06 A3002 RMK AO2 SLP183
                 T10221061 =
2018-11-21 01:43 METAR KDUJ 210643Z AUTO 24014KT 10SM OVC030 M02/M06 A3002 RMK AO2 T10221061 =
2018-11-21 00:53 METAR KDUJ 210553Z AUTO 25011KT 10SM OVC029 M03/M07 A3003 RMK AO2 SLP187
                 T10281067 11017 21028 58011 =
2018-11-21 00:38 METAR KDUJ 210538Z AUTO 24011KT 10SM OVC029 M03/M07 A3003 RMK AO2 T10281067 =
2018-11-21 00:14 METAR KDUJ 210514Z AUTO 24012KT 10SM SCT023 OVC030 M03/M07 A3003 RMK AO2
                 T10281067 =
2018-11-20 23:53 METAR KDUJ 210453Z AUTO 24013KT 10SM OVC025 M03/M07 A3004 RMK AO2 SLP193
                 T10281067 400061028 =
2018-11-20 22:53 METAR KDUJ 210353Z AUTO 26009KT 10SM OVC027 M03/M07 A3005 RMK AO2 SLP196
                 T10281072 =
2018-11-20 21:53 METAR KDUJ 210253Z AUTO 26017G21KT 10SM OVC024 M02/M07 A3006 RMK AO2 SLP198
                 T10221072 58000 =
2018-11-20 21:11 METAR KDUJ 210211Z AUTO 27012KT 10SM OVC029 M02/M07 A3006 RMK AO2 T10221072 =
2018-11-20 21:04 METAR KDUJ 210204Z AUTO 28013G21KT 10SM FEW020 SCT026 OVC031 M02/M07 A3006 RMK
                 AO2 T10221072 =
2018-11-20 20:53 METAR KDUJ 210153Z AUTO 27015G22KT 10SM SCT020 BKN026 OVC031 M02/M07 A3007 RMK
                 AO2 SLP201 T10221067 =
2018-11-20 20:26 METAR KDUJ 210126Z AUTO 27013KT 10SM BKN024 OVC031 M02/M06 A3007 RMK AO2
                 T10221061 =
2018-11-20 20:14 METAR KDUJ 210114Z AUTO 28011KT 10SM OVC030 M02/M06 A3007 RMK AO2 T10171061 =
2018-11-20 19:53 METAR KDUJ 210053Z AUTO 26012KT 10SM BKN026 OVC034 M02/M06 A3006 RMK AO2 SLP198
                 T10171056 =
2018-11-20 19:34 METAR KDUJ 210034Z AUTO 26012G19KT 10SM SCT024 OVC036 M02/M06 A3006 RMK AO2
                 T10171056 =
2018-11-20 19:11 METAR KDUJ 210011Z AUTO 28013G21KT 10SM SCT013 OVC024 M02/M05 A3006 RMK AO2
                 T10171050 =
2018-11-20 18:53 METAR KDUJ 202353Z AUTO 28008KT 10SM BKN011 OVC019 M02/M04 A3006 RMK AO2 SLP197
                 60000 T10171039 10000 21017 53019 =
2018-11-20 18:29 METAR KDUJ 202329Z AUTO 27010KT 10SM BKN010 OVC015 M01/M04 A3005 RMK AO2
                 T10111039 =
2018-11-20 18:14 METAR KDUJ 202314Z AUTO 27009KT 10SM BKN015 BKN023 OVC040 M01/M03 A3004 RMK AO2
                 T10111033 =
2018-11-20 18:01 METAR KDUJ 202301Z AUTO 27011KT 10SM SCT015 OVC042 M01/M04 A3003 RMK AO2
                 T10111039 =
2018-11-20 17:53 METAR KDUJ 202253Z AUTO 27012KT 10SM SCT015 BKN021 OVC044 M01/M03 A3003 RMK AO2
                 SLP188 T10111033 =
2018-11-20 17:41 METAR KDUJ 202241Z AUTO 28008KT 10SM SCT013 BKN027 OVC044 M01/M03 A3003 RMK AO2
                 T10111033 =
2018-11-20 17:03 METAR KDUJ 202203Z AUTO 27005KT 8SM FEW008 BKN013 OVC042 M01/M03 A3003 RMK AO2
                 T10111033 =
2018-11-20 16:53 METAR KDUJ 202153Z AUTO 29007KT 7SM FEW014 OVC038 M01/M03 A3002 RMK AO2 SNB09E20
                 SLP185 P0000 T10111033 =
2018-11-20 15:53 METAR KDUJ 202053Z AUTO 29012G16KT 10SM FEW016 BKN042 OVC049 M01/M03 A3000 RMK
                 AO2 SLP176 T10061028 53016 =
2018-11-20 15:35 METAR KDUJ 202035Z AUTO 27009G17KT 10SM FEW014 SCT020 OVC044 M01/M03 A2999 RMK
                 AO2 T10061033 =
2018-11-20 15:28 METAR KDUJ 202028Z AUTO 28010KT 10SM SCT014 BKN020 OVC040 M01/M03 A2999 RMK AO2
                 T10061028 =
2018-11-20 14:53 METAR KDUJ 201953Z AUTO 28011KT 10SM SCT009 BKN012 OVC035 M01/M03 A2998 RMK AO2
                 SLP167 T10061028 =
2018-11-20 14:02 METAR KDUJ 201902Z AUTO 27013KT 4SM BR BKN009 OVC014 M01/M02 A2996 RMK AO2 CIG
                 007V011 T10061022 =
2018-11-20 13:53 METAR KDUJ 201853Z AUTO 26013KT 2SM BR BKN009 OVC014 M01/M02 A2996 RMK AO2 CIG
                 007V011 SLP162 T10061022 =
2018-11-20 13:38 METAR KDUJ 201838Z AUTO 26011KT 2 1/2SM BR BKN009 OVC013 M01/M02 A2996 RMK AO2
                 CIG 006V013 T10061022 =
2018-11-20 13:27 METAR KDUJ 201827Z AUTO 27011KT 3SM BR BKN009 OVC013 M01/M02 A2996 RMK AO2 CIG
                 006V013 T10061022 =
2018-11-20 13:03 METAR KDUJ 201803Z AUTO 26011KT 2SM BR BKN008 OVC014 M01/M02 A2995 RMK AO2 CIG
                 006V012 T10061022 =
2018-11-20 12:53 METAR KDUJ 201753Z AUTO 27011KT 3SM BR BKN008 OVC013 00/M02 A2995 RMK AO2 CIG
                 006V012 SLP158 60001 T00001022 10000 21006 58001 =
2018-11-20 12:27 METAR KDUJ 201727Z AUTO 25014KT 4SM BR BKN007 BKN012 OVC017 M01/M02 A2995 RMK
                 AO2 CIG 006V010 T10061017 =
2018-11-20 12:11 METAR KDUJ 201711Z AUTO 25012KT 4SM BR SCT009 BKN014 OVC022 M01/M02 A2996 RMK
                 AO2 T10061022 =
2018-11-20 11:53 METAR KDUJ 201653Z AUTO 26010KT 3SM BR BKN009 OVC017 M01/M02 A2995 RMK AO2 CIG
                 006V014 SLP160 T10061017 =
2018-11-20 11:51 METAR KDUJ 201651Z AUTO 25012KT 3SM BR BKN009 BKN015 OVC020 M01/M02 A2996 RMK
                 AO2 CIG 006V011 =
2018-11-20 11:39 METAR KDUJ 201639Z AUTO 27012KT 3SM BR BKN011 OVC017 M01/M02 A2996 RMK AO2
                 T10061022 =
2018-11-20 11:21 METAR KDUJ 201621Z AUTO 26011KT 2SM BR BKN009 OVC015 M01/M02 A2996 RMK AO2 CIG
                 007V011 T10061017 =
2018-11-20 11:12 METAR KDUJ 201612Z AUTO 27010KT 1 3/4SM BR BKN008 OVC017 M01/M02 A2996 RMK AO2
                 CIG 005V012 T10061022 =
2018-11-20 11:05 METAR KDUJ 201605Z AUTO 26013KT 1 3/4SM BR SCT006 BKN010 OVC015 M01/M02 A2996
                 RMK AO2 CIG 008V014 T10061017 =
2018-11-20 10:53 METAR KDUJ 201553Z AUTO 27011KT 1 3/4SM BR BKN008 BKN013 OVC024 M01/M02 A2996
                 RMK AO2 CIG 005V010 SLP161 T10061017 =
2018-11-20 10:44 METAR KDUJ 201544Z AUTO 26009KT 2 1/2SM BR SCT006 BKN010 OVC024 M01/M02 A2995
                 RMK AO2 CIG 007V013 T10061017 =
2018-11-20 10:34 METAR KDUJ 201534Z AUTO 27014G19KT 3SM BR BKN006 OVC022 M01/M02 A2995 RMK AO2
                 CIG 004V014 T10061017 =
2018-11-20 10:00 METAR KDUJ 201500Z AUTO 25012KT 1 3/4SM BR OVC006 M01/M02 A2994 RMK AO2 CIG
                 004V009 T10061017 =
2018-11-20 09:53 METAR KDUJ 201453Z AUTO 26012KT 2SM BR OVC007 M01/M02 A2994 RMK AO2 SNE23B29E42
                 CIG 004V009 SLP156 P0001 60001 T10061017 51013 =
2018-11-20 09:42 METAR KDUJ 201442Z AUTO 27012KT 1 3/4SM BR OVC007 M01/M02 A2994 RMK AO2
                 SNE23B29E42 CIG 004V011 P0001 T10061017 =
2018-11-20 09:35 METAR KDUJ 201435Z AUTO 26010KT 1 1/2SM -SN BR BKN004 OVC009 M01/M01 A2994 RMK
                 AO2 SNE23B29 CIG 003V007 P0001 T10061011 =
2018-11-20 09:27 METAR KDUJ 201427Z AUTO 26009KT 2SM BR BKN004 OVC011 M01/M02 A2994 RMK AO2 SNE23
                 CIG 003V008 P0001 T10061017 =
2018-11-20 09:21 METAR KDUJ 201421Z AUTO 26010KT 1 3/4SM -SN BR BKN005 BKN010 OVC013 M01/M02
                 A2993 RMK AO2 CIG 003V007 P0000 T10061017 =
2018-11-20 09:12 METAR KDUJ 201412Z AUTO 25009KT 3/4SM -SN BR BKN005 OVC009 M01/M01 A2993 RMK AO2
                 CIG 003V007 P0000 T10061011 =
2018-11-20 08:53 METAR KDUJ 201353Z AUTO 27009KT 1 1/4SM -SN BR OVC007 M01/M02 A2993 RMK AO2 CIG
                 004V012 SLP152 P0000 T10061017 =
2018-11-20 08:31 METAR KDUJ 201331Z AUTO 27007KT 1 1/4SM -SN BR OVC005 M01/M01 A2992 RMK AO2 CIG
                 003V008 P0000 T10061011 =
2018-11-20 08:20 METAR KDUJ 201320Z AUTO 26010KT 3/4SM -SN BR OVC005 M01/M01 A2992 RMK AO2 CIG
                 003V009 P0000 T10061011 =
2018-11-20 08:10 METAR KDUJ 201310Z AUTO 26010KT 1SM -SN BR OVC005 M01/M01 A2992 RMK AO2 P0000
                 T10061011 =
2018-11-20 07:53 METAR KDUJ 201253Z AUTO 27012KT 1SM -SN BR BKN003 OVC008 M01/M01 A2992 RMK AO2
                 SLP147 P0000 T10061011 =
2018-11-20 07:45 METAR KDUJ 201245Z AUTO 26010KT 1/2SM -SN FG OVC003 00/M01 A2991 RMK AO2 P0000
                 T00001011 =
2018-11-20 07:24 METAR KDUJ 201224Z AUTO 26009KT 1SM -SN BR OVC002 00/M01 A2991 RMK AO2 P0000
                 T00001011 =
2018-11-20 07:02 METAR KDUJ 201202Z AUTO 25009KT 2SM -SN BR OVC002 00/M01 A2991 RMK AO2 P0000
                 T00001011 =
2018-11-20 06:53 METAR KDUJ 201153Z AUTO 26007KT 1 1/2SM -SN BR OVC002 00/M01 A2990 RMK AO2
                 SLP141 P0000 60000 70041 I6001 T00001011 10006 21006 50003 =
2018-11-20 06:50 METAR KDUJ 201150Z AUTO 26007KT 1 1/4SM -SN BR OVC002 00/M01 A2990 RMK AO2 P0000
                 =
2018-11-20 06:30 METAR KDUJ 201130Z AUTO 24007KT 1/2SM -SN FG VV002 00/M01 A2990 RMK AO2 P0000
                 T00001006 =
2018-11-20 05:53 METAR KDUJ 201053Z AUTO 24007KT 1/4SM -SN FG VV002 00/M01 A2990 RMK AO2 SNB52
                 SLP141 P0000 I1001 T00001006 =

Support USWX by starting your Amazon purchase here.